Time;durP1;ratioP1;P1;durP2;ratioP2;P2;SDS_P1;SDS_P2;PMS_P1;PMS_P2;Temp;Humidity;BMP_temperature;BMP_pressure;BME280_temperature;BME280_humidity;BME280_pressure;Samples;Min_cycle;Max_cycle;Signal;HPM_P1;HPM_P2
2023/08/22 00:02:08;;;;;;;12.80;11.70;;;;;;;25.31;67.09;95174.25;5073518;28;20768;-78
2023/08/22 00:04:36;;;;;;;12.60;11.37;;;;;;;25.37;66.41;95177.94;5073519;28;20440;-78
2023/08/22 00:07:02;;;;;;;11.17;10.17;;;;;;;25.37;66.25;95167.19;5073728;28;20502;-78
2023/08/22 00:09:31;;;;;;;11.90;10.60;;;;;;;25.35;66.29;95178.16;5073355;28;20458;-79
2023/08/22 00:11:57;;;;;;;11.47;10.47;;;;;;;25.32;66.83;95175.91;5073414;28;20506;-78
2023/08/22 00:14:24;;;;;;;12.63;11.33;;;;;;;25.12;66.68;95169.78;5073333;28;20935;-78
2023/08/22 00:16:51;;;;;;;15.20;11.67;;;;;;;25.08;66.60;95169.41;5073462;28;20919;-79
2023/08/22 00:19:18;;;;;;;11.30;10.30;;;;;;;24.95;68.61;95172.13;5071091;28;20508;-78
2023/08/22 00:21:44;;;;;;;12.83;11.50;;;;;;;24.95;68.50;95175.63;5073505;28;20542;-79
2023/08/22 00:24:11;;;;;;;12.00;10.23;;;;;;;25.05;69.12;95175.19;5073305;28;20444;-78
2023/08/22 00:26:39;;;;;;;12.20;11.00;;;;;;;25.04;67.83;95173.53;5073196;28;20448;-76
2023/08/22 00:29:06;;;;;;;13.47;12.17;;;;;;;25.05;68.19;95175.19;5073166;28;20455;-77
2023/08/22 00:31:35;;;;;;;12.60;11.30;;;;;;;25.04;68.42;95170.03;5073120;28;21128;-78
2023/08/22 00:34:02;;;;;;;13.23;11.90;;;;;;;24.97;68.49;95173.53;5073107;28;20452;-78
2023/08/22 00:36:29;;;;;;;13.93;12.50;;;;;;;24.94;68.60;95167.78;5072959;28;20495;-78
2023/08/22 00:38:56;;;;;;;12.53;11.37;;;;;;;24.94;68.89;95159.72;5072928;28;20908;-77
2023/08/22 00:41:22;;;;;;;13.57;12.23;;;;;;;24.89;69.35;95164.91;5072964;28;20451;-78
2023/08/22 00:43:51;;;;;;;12.13;11.07;;;;;;;24.85;69.41;95171.72;5073410;28;20458;-78
2023/08/22 00:46:20;;;;;;;14.57;13.27;;;;;;;24.80;69.43;95171.53;5072936;28;20448;-79
2023/08/22 00:48:47;;;;;;;13.37;12.17;;;;;;;24.75;69.97;95174.03;5072903;28;20995;-79
2023/08/22 00:51:14;;;;;;;12.40;11.40;;;;;;;24.77;69.74;95178.16;5073259;28;20444;-76
2023/08/22 00:53:40;;;;;;;13.27;11.93;;;;;;;24.79;70.52;95173.38;5072911;28;20448;-78
2023/08/22 00:56:08;;;;;;;12.13;10.87;;;;;;;24.84;69.50;95172.75;5073027;28;20445;-78
2023/08/22 00:58:35;;;;;;;13.90;11.50;;;;;;;24.87;70.07;95175.03;5072919;28;20451;-78
2023/08/22 01:01:03;;;;;;;13.30;11.23;;;;;;;24.92;69.70;95176.06;5072977;28;20487;-78
2023/08/22 01:03:32;;;;;;;13.10;12.00;;;;;;;24.97;69.33;95175.41;5072785;28;20454;-79
2023/08/22 01:06:07;;;;;;;12.50;11.20;;;;;;;24.90;69.38;95171.94;5072865;28;20448;-76
2023/08/22 01:08:35;;;;;;;12.63;11.63;;;;;;;24.86;69.95;95170.69;5072855;28;20447;-77
2023/08/22 01:11:08;;;;;;;11.57;10.47;;;;;;;24.86;69.65;95176.03;5072799;28;20455;-77
2023/08/22 01:13:38;;;;;;;12.03;10.93;;;;;;;24.82;69.48;95175.66;5072612;28;20451;-79
2023/08/22 01:16:07;;;;;;;12.33;11.33;;;;;;;24.80;69.69;95166.16;5076185;28;20932;-78
2023/08/22 01:18:40;;;;;;;14.40;12.17;;;;;;;24.74;70.26;95172.38;5076603;28;20457;-78
2023/08/22 01:21:07;;;;;;;11.20;10.30;;;;;;;24.77;70.53;95175.47;5076879;28;20499;-78
2023/08/22 01:23:35;;;;;;;14.83;12.27;;;;;;;24.81;70.46;95167.81;5076529;28;20847;-80
2023/08/22 01:26:03;;;;;;;13.27;12.20;;;;;;;24.84;69.71;95172.75;5076385;28;20444;-79
2023/08/22 01:28:37;;;;;;;13.03;11.70;;;;;;;24.91;69.48;95168.22;5076642;28;20463;-79
2023/08/22 01:31:16;;;;;;;13.40;12.13;;;;;;;24.90;69.38;95169.25;5076676;28;20464;-77
2023/08/22 01:33:54;;;;;;;13.30;11.83;;;;;;;24.93;69.63;95158.91;5076511;28;20453;-78
2023/08/22 01:36:24;;;;;;;12.53;10.97;;;;;;;24.92;68.88;95165.31;5076433;28;20460;-79
2023/08/22 01:38:54;;;;;;;11.70;10.57;;;;;;;24.80;68.97;95163.47;5076324;28;20810;-80
2023/08/22 01:41:23;;;;;;;12.37;11.27;;;;;;;24.85;70.19;95169.03;5076104;28;20494;-80
2023/08/22 01:43:52;;;;;;;12.63;11.50;;;;;;;24.85;70.39;95169.03;5076336;28;20462;-78
2023/08/22 01:46:18;;;;;;;12.07;11.00;;;;;;;24.87;70.25;95170.50;5076342;28;20490;-79
2023/08/22 01:48:45;;;;;;;12.40;11.30;;;;;;;24.90;70.06;95171.94;5076109;28;20452;-79
2023/08/22 01:51:12;;;;;;;12.70;11.50;;;;;;;24.88;69.15;95174.00;5076451;28;20448;-78
2023/08/22 01:53:39;;;;;;;13.17;11.97;;;;;;;24.87;70.18;95166.97;5076109;28;20505;-78
2023/08/22 01:56:07;;;;;;;21.83;12.43;;;;;;;24.88;69.50;95172.16;5075955;28;20445;-79
2023/08/22 01:58:34;;;;;;;12.93;11.50;;;;;;;24.86;70.60;95171.50;5076007;28;20451;-79
2023/08/22 02:01:08;;;;;;;14.03;12.07;;;;;;;24.82;69.74;95169.44;5040515;28;20484;-78
2023/08/22 02:03:35;;;;;;;12.90;11.70;;;;;;;24.78;70.62;95173.59;5075959;28;20443;-78
2023/08/22 02:06:02;;;;;;;13.23;11.80;;;;;;;24.77;69.33;95174.63;5075804;28;20467;-79
2023/08/22 02:08:29;;;;;;;12.93;11.80;;;;;;;24.74;70.16;95177.75;5075782;28;20456;-79
2023/08/22 02:10:56;;;;;;;12.87;11.77;;;;;;;24.69;70.32;95179.22;5075642;28;20961;-79
2023/08/22 02:13:24;;;;;;;12.30;10.73;;;;;;;24.62;69.90;95169.53;5075778;28;20928;-80
2023/08/22 02:15:51;;;;;;;12.67;11.33;;;;;;;24.59;69.98;95172.63;5075637;28;20462;-79
2023/08/22 02:18:18;;;;;;;12.63;11.43;;;;;;;24.58;70.91;95170.97;5075787;28;20448;-79
2023/08/22 02:20:45;;;;;;;19.00;11.97;;;;;;;24.56;69.86;95168.47;5073306;28;20495;-79
2023/08/22 02:23:12;;;;;;;15.83;14.33;;;;;;;24.57;70.71;95174.66;5075548;28;20493;-79
2023/08/22 02:25:39;;;;;;;12.80;11.70;;;;;;;24.59;70.82;95173.47;5075951;28;21091;-79
2023/08/22 02:28:06;;;;;;;13.40;12.00;;;;;;;24.65;69.66;95175.28;5075535;28;20455;-78
2023/08/22 02:30:35;;;;;;;12.80;11.60;;;;;;;24.60;70.15;95174.28;5075419;28;20447;-79
2023/08/22 02:33:01;;;;;;;13.40;12.17;;;;;;;24.55;70.13;95174.06;5075361;28;21016;-78
2023/08/22 02:35:28;;;;;;;13.03;11.83;;;;;;;24.58;70.51;95171.81;5075288;28;20452;-77
2023/08/22 02:37:55;;;;;;;14.80;12.50;;;;;;;24.56;70.44;95168.47;5075302;28;20502;-79
2023/08/22 02:40:22;;;;;;;13.80;12.50;;;;;;;24.61;70.32;95178.63;5075201;28;20506;-79
2023/08/22 02:42:49;;;;;;;13.97;12.67;;;;;;;24.58;70.65;95174.50;5075329;28;20446;-78
2023/08/22 02:45:15;;;;;;;13.03;11.50;;;;;;;24.52;70.89;95175.31;5039779;28;20521;-80
2023/08/22 02:47:44;;;;;;;13.60;12.50;;;;;;;24.50;70.86;95174.69;5075336;28;20443;-79
2023/08/22 02:50:11;;;;;;;14.20;12.80;;;;;;;24.41;71.07;95178.63;5075197;28;20448;-77
2023/08/22 02:52:37;;;;;;;12.90;11.70;;;;;;;24.37;71.85;95177.41;5075120;28;20431;-81
2023/08/22 02:55:05;;;;;;;13.30;12.00;;;;;;;24.37;71.46;95188.13;5075408;28;20444;-78
2023/08/22 02:57:32;;;;;;;13.20;11.93;;;;;;;24.28;71.20;95178.63;5075228;28;20441;-77
2023/08/22 02:59:59;;;;;;;13.27;12.03;;;;;;;24.23;72.15;95183.75;5074901;28;20494;-78
2023/08/22 03:02:25;;;;;;;13.70;12.50;;;;;;;24.25;72.06;95189.75;5056115;28;20923;-79
2023/08/22 03:04:54;;;;;;;14.57;13.03;;;;;;;24.23;71.82;95186.44;5074633;28;20428;-79
2023/08/22 03:07:20;;;;;;;13.33;12.23;;;;;;;24.25;71.89;95179.03;5055841;28;20949;-79
2023/08/22 03:09:47;;;;;;;14.77;13.47;;;;;;;24.30;71.79;95179.28;5074713;28;20923;-81
2023/08/22 03:12:14;;;;;;;13.37;12.07;;;;;;;24.34;71.90;95186.69;5072858;28;20446;-79
2023/08/22 03:14:42;;;;;;;15.60;12.60;;;;;;;24.35;72.16;95187.53;5039353;28;20933;-78
2023/08/22 03:17:09;;;;;;;18.67;13.03;;;;;;;24.27;71.69;95191.19;5074626;28;20450;-80
2023/08/22 03:19:36;;;;;;;12.90;11.70;;;;;;;24.30;71.98;95192.69;5074448;28;20448;-79
2023/08/22 03:22:04;;;;;;;15.07;13.30;;;;;;;24.23;71.37;95198.00;5074348;28;20479;-79
2023/08/22 03:24:31;;;;;;;14.77;13.37;;;;;;;24.17;71.93;95203.38;5074592;28;20481;-77
2023/08/22 03:26:58;;;;;;;13.27;11.97;;;;;;;24.15;72.23;95194.72;5074237;28;20458;-79
2023/08/22 03:29:25;;;;;;;15.00;12.10;;;;;;;24.22;72.31;95200.91;5074064;28;20502;-80
2023/08/22 03:31:52;;;;;;;13.87;12.47;;;;;;;24.27;71.75;95203.78;5074232;28;20459;-78
2023/08/22 03:34:18;;;;;;;12.70;11.50;;;;;;;24.22;70.90;95200.91;5073995;28;20455;-78
2023/08/22 03:36:45;;;;;;;13.50;12.20;;;;;;;24.22;71.95;95195.53;5074010;28;20449;-78
2023/08/22 03:39:13;;;;;;;15.03;13.53;;;;;;;24.24;71.42;95194.28;5074368;28;20444;-79
2023/08/22 03:41:40;;;;;;;13.30;11.33;;;;;;;24.22;70.76;95208.94;5074186;28;20512;-79
2023/08/22 03:44:07;;;;;;;14.20;12.80;;;;;;;24.14;71.19;95201.09;5074248;28;20933;-80
2023/08/22 03:46:34;;;;;;;14.00;12.60;;;;;;;23.99;70.97;95196.75;5054769;28;20496;-76
2023/08/22 03:49:01;;;;;;;14.53;13.10;;;;;;;23.83;71.68;95199.03;5073668;28;20954;-78
2023/08/22 03:51:27;;;;;;;13.87;12.13;;;;;;;23.69;72.43;95192.81;5073784;28;20895;-76
2023/08/22 03:53:54;;;;;;;15.53;14.13;;;;;;;23.51;72.74;95197.91;5073830;28;20447;-76
2023/08/22 03:56:22;;;;;;;16.73;12.77;;;;;;;23.36;73.58;95198.88;5073751;28;20789;-76
2023/08/22 03:58:49;;;;;;;13.30;11.90;;;;;;;23.24;74.26;95203.16;5073555;28;20452;-77
2023/08/22 04:01:16;;;;;;;15.60;14.10;;;;;;;23.12;74.73;95194.88;5073434;28;20493;-78
2023/08/22 04:03:43;;;;;;;14.77;13.17;;;;;;;23.09;74.87;95205.97;5073716;28;20820;-78
2023/08/22 04:06:10;;;;;;;15.93;13.87;;;;;;;23.03;75.38;95205.97;5073411;28;20447;-78
2023/08/22 04:08:36;;;;;;;15.77;14.13;;;;;;;22.97;75.71;95210.25;5054588;28;20534;-79
2023/08/22 04:11:03;;;;;;;14.60;13.20;;;;;;;23.03;75.69;95209.47;5073442;28;20775;-77
2023/08/22 04:13:31;;;;;;;15.43;13.53;;;;;;;23.09;75.97;95213.19;5073488;28;20794;-82
2023/08/22 04:15:58;;;;;;;14.50;12.53;;;;;;;23.26;76.53;95214.50;5073461;28;20455;-77
2023/08/22 04:18:25;;;;;;;14.87;13.57;;;;;;;23.45;74.75;95220.97;5073208;28;20914;-77
2023/08/22 04:20:52;;;;;;;14.00;12.70;;;;;;;23.31;75.97;95217.41;5073191;28;20495;-76
2023/08/22 04:23:18;;;;;;;14.03;12.67;;;;;;;23.32;76.84;95221.72;5073321;28;20843;-76
2023/08/22 04:25:45;;;;;;;24.20;15.20;;;;;;;23.76;76.24;95217.78;5073293;28;20447;-76
2023/08/22 04:28:13;;;;;;;16.73;15.00;;;;;;;24.19;73.44;95228.13;5073203;28;20449;-76
2023/08/22 04:30:42;;;;;;;19.40;14.20;;;;;;;24.69;71.77;95230.19;5072912;28;20436;-76
2023/08/22 04:33:09;;;;;;;15.37;13.90;;;;;;;25.32;69.60;95225.09;5038288;28;20445;-76
2023/08/22 04:35:37;;;;;;;16.73;12.90;;;;;;;25.94;66.92;95222.72;5072293;28;20449;-77
2023/08/22 04:38:04;;;;;;;17.10;13.50;;;;;;;26.39;64.95;95228.84;5073250;28;20798;-76
2023/08/22 04:40:31;;;;;;;13.80;12.23;;;;;;;26.82;63.06;95222.66;5072794;28;20476;-76
2023/08/22 04:42:58;;;;;;;11.50;10.40;;;;;;;27.18;61.49;95232.66;5072838;28;20445;-76
2023/08/22 04:45:24;;;;;;;13.33;12.00;;;;;;;27.54;58.96;95226.44;5073145;28;20441;-75
2023/08/22 04:47:52;;;;;;;12.30;11.10;;;;;;;27.71;58.11;95229.31;5071113;28;20548;-76
2023/08/22 04:50:19;;;;;;;13.07;11.83;;;;;;;27.85;58.17;95221.91;5070519;28;20461;-76
2023/08/22 04:52:46;;;;;;;11.00;10.10;;;;;;;28.20;57.20;95232.78;5073803;28;20456;-75
2023/08/22 04:55:13;;;;;;;12.93;11.50;;;;;;;28.45;56.13;95238.03;5075674;28;20470;-77
2023/08/22 04:57:40;;;;;;;13.67;12.33;;;;;;;28.54;55.57;95240.16;5073576;28;20451;-78
2023/08/22 05:00:09;;;;;;;13.53;11.20;;;;;;;28.49;55.74;95242.72;5092903;28;20440;-78
2023/08/22 05:02:36;;;;;;;12.07;10.93;;;;;;;28.49;55.43;95231.09;5074278;28;20446;-78
2023/08/22 05:05:06;;;;;;;12.70;11.50;;;;;;;28.44;55.44;95233.69;5093258;28;20444;-77
2023/08/22 05:07:33;;;;;;;12.97;11.67;;;;;;;28.55;56.42;95236.38;5090223;28;20448;-76
2023/08/22 05:09:59;;;;;;;13.50;12.00;;;;;;;28.70;54.59;95244.06;5069549;28;20472;-79
2023/08/22 05:12:26;;;;;;;14.93;13.10;;;;;;;28.72;55.58;95235.72;5071991;28;20807;-78
2023/08/22 05:14:53;;;;;;;25.70;14.30;;;;;;;28.45;57.09;95246.13;5072835;28;20791;-78
2023/08/22 05:17:20;;;;;;;18.10;15.30;;;;;;;27.98;58.71;95251.38;5072470;28;20853;-77
2023/08/22 05:19:46;;;;;;;37.87;16.33;;;;;;;27.71;60.10;95245.50;5072631;28;20428;-77
2023/08/22 05:22:15;;;;;;;28.47;14.73;;;;;;;27.76;59.57;95251.88;5072317;28;20500;-78
2023/08/22 05:24:41;;;;;;;25.80;15.70;;;;;;;27.73;60.10;95252.31;5072529;28;21203;-79
2023/08/22 05:27:08;;;;;;;18.03;14.57;;;;;;;27.69;60.81;95251.13;5072635;28;20447;-78
2023/08/22 05:29:35;;;;;;;20.23;15.40;;;;;;;27.62;59.61;95245.00;5071504;28;20490;-77
2023/08/22 05:32:02;;;;;;;28.03;16.17;;;;;;;27.48;60.15;95253.47;5071986;28;20443;-79
2023/08/22 05:34:29;;;;;;;20.87;13.53;;;;;;;27.59;60.68;95245.44;5066421;28;20464;-80
2023/08/22 05:36:55;;;;;;;14.87;13.37;;;;;;;27.90;59.61;95246.31;5082865;28;20429;-78
2023/08/22 05:39:24;;;;;;;15.63;13.80;;;;;;;28.10;58.27;95248.72;5071737;28;20457;-79
2023/08/22 05:41:50;;;;;;;12.93;11.63;;;;;;;28.40;58.38;95251.41;5071847;28;20483;-78
2023/08/22 05:44:17;;;;;;;16.00;14.40;;;;;;;28.78;56.85;95254.50;5064546;28;20499;-79
2023/08/22 05:46:44;;;;;;;15.77;13.47;;;;;;;29.12;55.64;95250.16;5051714;28;20464;-79
2023/08/22 05:49:11;;;;;;;20.20;13.67;;;;;;;29.38;54.92;95251.53;5037457;28;20453;-77
2023/08/22 05:51:37;;;;;;;16.40;13.33;;;;;;;29.62;53.57;95252.34;5091657;28;20436;-78
2023/08/22 05:54:05;;;;;;;13.73;12.17;;;;;;;29.75;52.70;95245.81;5085778;28;20464;-76
2023/08/22 05:56:33;;;;;;;14.43;13.03;;;;;;;29.89;52.59;95249.91;5076990;28;20796;-79
2023/08/22 05:58:59;;;;;;;13.60;12.37;;;;;;;30.00;52.26;95243.59;5070947;28;20433;-79
2023/08/22 06:01:26;;;;;;;13.87;12.40;;;;;;;30.06;51.46;95242.66;5073198;28;20488;-77
2023/08/22 06:03:53;;;;;;;14.33;12.90;;;;;;;30.16;52.31;95245.56;5075431;28;20451;-78
2023/08/22 06:06:20;;;;;;;14.63;13.23;;;;;;;30.22;52.25;95235.66;5074355;28;20444;-77
2023/08/22 06:08:47;;;;;;;14.00;11.47;;;;;;;30.29;52.41;95246.31;5074535;28;20932;-79
2023/08/22 06:11:13;;;;;;;14.43;11.97;;;;;;;30.31;51.81;95236.06;5075558;28;20433;-78
2023/08/22 06:13:41;;;;;;;12.67;11.00;;;;;;;30.38;50.56;95234.03;5034920;28;20441;-78
2023/08/22 06:16:08;;;;;;;12.33;11.40;;;;;;;30.50;50.45;95237.47;5072383;28;20444;-78
2023/08/22 06:18:35;;;;;;;14.47;12.57;;;;;;;30.57;50.12;95237.31;5074544;28;20437;-78
2023/08/22 06:21:05;;;;;;;18.00;12.03;;;;;;;30.75;49.75;95229.81;5074431;28;20487;-78
2023/08/22 06:23:31;;;;;;;13.37;11.70;;;;;;;30.81;48.69;95230.69;5074535;28;20465;-78
2023/08/22 06:25:58;;;;;;;11.83;10.83;;;;;;;30.94;49.13;95226.81;5074247;28;20449;-78
2023/08/22 06:28:25;;;;;;;12.43;11.23;;;;;;;31.02;48.60;95223.69;5079584;28;20444;-78
2023/08/22 06:30:53;;;;;;;11.97;10.87;;;;;;;31.20;48.60;95223.41;5073769;28;20444;-78
2023/08/22 06:33:20;;;;;;;11.97;11.07;;;;;;;31.41;47.36;95221.81;5073797;28;20448;-78
2023/08/22 06:35:47;;;;;;;12.30;11.10;;;;;;;31.62;46.96;95220.16;5073908;28;20444;-78
2023/08/22 06:38:14;;;;;;;12.77;11.47;;;;;;;31.88;47.35;95232.16;5073547;28;20525;-78
2023/08/22 06:40:41;;;;;;;13.37;11.50;;;;;;;31.97;46.37;95226.03;5080768;28;20440;-76
2023/08/22 06:43:07;;;;;;;12.80;11.60;;;;;;;31.89;46.34;95223.78;5092564;28;20448;-81
2023/08/22 06:45:34;;;;;;;12.57;11.30;;;;;;;32.00;47.09;95236.38;5078064;28;20445;-78
2023/08/22 06:48:03;;;;;;;14.10;11.83;;;;;;;32.02;46.51;95230.69;5073574;28;20452;-79
2023/08/22 06:50:29;;;;;;;13.40;12.23;;;;;;;31.92;45.92;95233.28;5037747;28;20425;-79
2023/08/22 06:52:56;;;;;;;12.73;11.50;;;;;;;32.01;47.34;95231.75;5075268;28;20433;-78
2023/08/22 06:55:23;;;;;;;16.07;11.40;;;;;;;31.92;46.86;95236.81;5082151;28;20433;-77
2023/08/22 06:57:50;;;;;;;13.13;11.93;;;;;;;31.94;47.59;95231.13;5073244;28;20441;-78
2023/08/22 07:00:18;;;;;;;12.97;11.77;;;;;;;32.21;47.30;95228.44;5073475;28;20788;-76
2023/08/22 07:02:46;;;;;;;14.17;12.30;;;;;;;32.47;46.27;95224.91;5073234;28;20523;-78
2023/08/22 07:05:15;;;;;;;13.47;12.07;;;;;;;32.62;45.53;95230.44;5079894;28;20448;-78
2023/08/22 07:07:42;;;;;;;14.87;12.17;;;;;;;32.27;45.45;95227.44;5082626;28;20472;-78
2023/08/22 07:10:11;;;;;;;15.13;13.60;;;;;;;32.27;47.02;95227.44;5093001;28;20504;-77
2023/08/22 07:12:38;;;;;;;15.83;12.20;;;;;;;32.08;46.57;95220.69;5080034;28;20479;-77
2023/08/22 07:15:06;;;;;;;13.07;11.77;;;;;;;32.10;47.56;95226.69;5089625;28;20447;-77
2023/08/22 07:17:33;;;;;;;14.13;12.00;;;;;;;32.06;46.93;95218.22;5073702;28;21096;-77
2023/08/22 07:19:59;;;;;;;21.90;12.80;;;;;;;32.22;46.30;95222.75;5037543;28;20443;-77
2023/08/22 07:22:29;;;;;;;13.50;12.10;;;;;;;32.26;46.27;95220.34;5090935;28;20492;-77
2023/08/22 07:24:55;;;;;;;30.93;12.37;;;;;;;32.17;46.88;95214.56;5073238;28;20794;-77
2023/08/22 07:27:23;;;;;;;20.63;13.73;;;;;;;32.28;47.35;95221.75;5072866;28;20808;-77
2023/08/22 07:29:50;;;;;;;14.83;12.43;;;;;;;32.45;45.73;95212.66;5077801;28;20428;-77
2023/08/22 07:32:18;;;;;;;13.20;11.83;;;;;;;32.57;45.95;95205.13;5074882;28;20429;-77
2023/08/22 07:34:45;;;;;;;13.73;12.33;;;;;;;32.82;45.73;95210.78;5072437;28;20541;-77
2023/08/22 07:37:12;;;;;;;16.60;13.80;;;;;;;32.95;46.25;95213.03;5074409;28;20448;-77
2023/08/22 07:39:40;;;;;;;13.67;12.50;;;;;;;32.83;46.12;95212.44;5072884;28;20441;-77
2023/08/22 07:42:07;;;;;;;13.17;11.87;;;;;;;32.64;46.08;95203.81;5073330;28;20484;-77
2023/08/22 07:44:34;;;;;;;14.37;12.90;;;;;;;32.58;46.73;95210.31;5073148;28;20436;-78
2023/08/22 07:47:02;;;;;;;15.10;12.90;;;;;;;32.49;46.80;95202.91;5072871;28;20790;-77
2023/08/22 07:49:29;;;;;;;13.47;12.20;;;;;;;32.72;47.72;95207.16;4987953;28;20449;-76
2023/08/22 07:51:55;;;;;;;20.13;11.90;;;;;;;32.86;46.23;95200.22;5091664;28;20443;-77
2023/08/22 07:54:22;;;;;;;19.70;12.00;;;;;;;32.94;45.82;95208.69;5073599;28;20437;-77
2023/08/22 07:56:50;;;;;;;17.03;11.97;;;;;;;33.08;46.14;95200.91;5081966;28;20452;-77
2023/08/22 07:59:17;;;;;;;17.77;13.60;;;;;;;33.04;44.05;95213.41;5042068;28;20435;-75
2023/08/22 08:01:44;;;;;;;14.20;12.90;;;;;;;33.10;45.21;95209.63;5075783;28;20507;-77
2023/08/22 08:04:11;;;;;;;14.73;12.57;;;;;;;33.17;44.59;95204.75;5070752;28;20452;-77
2023/08/22 08:06:38;;;;;;;14.97;12.10;;;;;;;32.77;45.45;95212.63;5072221;28;20440;-75
2023/08/22 08:09:04;;;;;;;14.53;12.50;;;;;;;32.79;44.58;95210.50;5045442;28;20445;-75
2023/08/22 08:11:32;;;;;;;13.40;11.70;;;;;;;32.88;44.89;95208.94;5079941;28;21032;-78
2023/08/22 08:14:01;;;;;;;19.70;11.60;;;;;;;33.02;44.70;95204.69;5069999;28;21030;-78
2023/08/22 08:16:28;;;;;;;11.63;10.53;;;;;;;33.05;44.16;95203.34;5072958;28;21246;-77
2023/08/22 08:18:54;;;;;;;11.80;10.80;;;;;;;33.15;44.48;95206.91;5081639;28;20952;-76
2023/08/22 08:21:21;;;;;;;13.73;11.50;;;;;;;33.37;43.89;95204.06;5083459;28;20472;-76
2023/08/22 08:23:48;;;;;;;13.60;11.37;;;;;;;33.21;42.93;95203.13;5081187;28;20468;-76
2023/08/22 08:26:15;;;;;;;16.00;11.23;;;;;;;33.10;42.83;95206.06;5083308;28;20447;-78
2023/08/22 08:28:42;;;;;;;13.03;11.83;;;;;;;33.07;43.76;95198.44;5080929;28;20479;-76
2023/08/22 08:31:10;;;;;;;11.80;10.07;;;;;;;33.07;43.51;95193.00;5081211;28;20908;-76
2023/08/22 08:33:37;;;;;;;11.80;10.60;;;;;;;33.14;44.24;95199.84;5079041;28;20452;-77
2023/08/22 08:36:05;;;;;;;17.07;11.90;;;;;;;32.99;44.12;95194.34;5086894;28;20443;-77
2023/08/22 08:38:31;;;;;;;18.03;12.70;;;;;;;33.07;44.89;95196.53;5091812;28;20527;-80
2023/08/22 08:41:03;;;;;;;14.87;12.07;;;;;;;33.24;43.56;95194.44;5085436;28;20429;-77
2023/08/22 08:43:33;;;;;;;17.73;13.50;;;;;;;33.42;43.95;95197.84;5072454;28;20546;-77
2023/08/22 08:46:00;;;;;;;14.50;11.50;;;;;;;33.49;43.33;95195.69;5076526;28;20973;-77
2023/08/22 08:48:30;;;;;;;16.53;12.37;;;;;;;33.53;43.99;95185.91;5073443;28;20450;-76
2023/08/22 08:50:59;;;;;;;13.27;11.87;;;;;;;33.61;43.21;95193.56;5090964;28;20436;-75
2023/08/22 08:53:27;;;;;;;15.17;12.13;;;;;;;33.59;42.89;95184.84;5090043;28;20452;-77
2023/08/22 08:55:54;;;;;;;13.33;11.97;;;;;;;33.72;43.34;95181.63;5071514;28;20523;-76
2023/08/22 08:58:22;;;;;;;17.27;11.20;;;;;;;33.74;41.55;95184.88;5070855;28;20849;-77
2023/08/22 09:00:50;;;;;;;12.97;11.47;;;;;;;33.83;41.53;95177.88;5051982;28;20437;-76
2023/08/22 09:03:17;;;;;;;11.17;10.23;;;;;;;33.81;43.06;95185.44;5080717;28;20484;-82
2023/08/22 09:05:45;;;;;;;12.90;11.53;;;;;;;33.84;40.75;95168.63;5081051;28;20432;-76
2023/08/22 09:08:16;;;;;;;14.40;10.07;;;;;;;33.77;40.05;95178.09;5071634;28;20853;-76
2023/08/22 09:10:43;;;;;;;11.07;9.40;;;;;;;33.76;41.30;95180.00;5076675;28;20431;-76
2023/08/22 09:13:09;;;;;;;11.70;10.50;;;;;;;33.82;40.32;95176.19;5074934;28;20464;-76
2023/08/22 09:15:36;;;;;;;11.70;10.50;;;;;;;33.66;39.59;95181.88;5081290;28;20439;-77
2023/08/22 09:18:03;;;;;;;11.50;10.33;;;;;;;33.80;38.66;95172.91;5073006;28;20931;-76
2023/08/22 09:20:30;;;;;;;14.60;10.53;;;;;;;33.94;39.40;95167.81;5090719;28;20439;-76
2023/08/22 09:22:58;;;;;;;11.07;8.27;;;;;;;34.06;40.39;95157.47;5079544;28;20523;-76
2023/08/22 09:25:39;;;;;;;10.30;9.40;;;;;;;34.26;39.13;95167.59;5070586;28;20444;-76
2023/08/22 09:28:10;;;;;;;10.43;9.30;;;;;;;34.13;38.40;95160.78;5069685;28;20472;-75
2023/08/22 09:30:37;;;;;;;13.30;9.17;;;;;;;34.12;37.79;95145.53;5070273;28;20464;-76
2023/08/22 09:33:04;;;;;;;10.83;9.77;;;;;;;34.20;38.40;95157.78;5071296;28;20433;-75
2023/08/22 09:35:32;;;;;;;10.03;9.23;;;;;;;34.10;37.06;95150.41;5071869;28;20455;-75
2023/08/22 09:38:07;;;;;;;11.00;10.00;;;;;;;34.14;39.59;95143.34;5075541;28;20479;-76
2023/08/22 09:40:34;;;;;;;9.87;8.93;;;;;;;34.00;36.09;95142.22;5074033;28;20479;-75
2023/08/22 09:43:02;;;;;;;9.43;8.53;;;;;;;34.15;37.32;95144.97;5076042;28;20519;-76
2023/08/22 09:45:31;;;;;;;9.73;8.60;;;;;;;34.33;37.04;95137.34;5073728;28;20539;-76
2023/08/22 09:47:59;;;;;;;10.33;9.27;;;;;;;34.50;37.81;95148.00;5074748;28;20563;-79
2023/08/22 09:50:27;;;;;;;20.83;8.87;;;;;;;33.92;36.68;95137.31;5073177;28;20520;-76
2023/08/22 09:52:55;;;;;;;11.70;8.63;;;;;;;33.88;35.72;95119.88;5075048;28;20445;-77
2023/08/22 09:55:24;;;;;;;9.90;8.90;;;;;;;33.98;33.83;95122.63;5073758;28;20444;-77
2023/08/22 09:57:51;;;;;;;8.43;7.70;;;;;;;34.03;34.69;95122.63;5075163;28;20511;-77
2023/08/22 10:00:18;;;;;;;8.47;7.33;;;;;;;33.97;34.65;95118.25;5074778;28;20448;-76
2023/08/22 10:02:46;;;;;;;9.67;8.23;;;;;;;33.83;33.03;95117.97;5071069;28;20621;-75
2023/08/22 10:05:14;;;;;;;11.07;8.60;;;;;;;33.55;34.79;95121.16;5056217;28;20441;-74
2023/08/22 10:07:40;;;;;;;7.93;7.33;;;;;;;33.61;34.68;95121.97;5073456;28;20428;-74
2023/08/22 10:10:09;;;;;;;9.63;7.83;;;;;;;33.66;34.91;95111.91;5073719;28;20441;-75
2023/08/22 10:12:38;;;;;;;9.60;8.00;;;;;;;33.68;34.37;95114.38;5073810;28;20444;-74
2023/08/22 10:15:07;;;;;;;8.47;7.63;;;;;;;33.41;35.37;95117.28;5054907;28;20970;-76
2023/08/22 10:17:34;;;;;;;7.67;7.07;;;;;;;33.06;35.63;95113.31;5056372;28;20440;-75
2023/08/22 10:20:04;;;;;;;15.50;8.73;;;;;;;33.16;36.36;95107.91;5075138;28;20440;-75
2023/08/22 10:22:33;;;;;;;13.40;9.27;;;;;;;33.04;36.17;95111.94;5072103;28;20490;-76
2023/08/22 10:25:03;;;;;;;9.43;8.53;;;;;;;32.77;36.25;95112.06;5066042;28;20522;-76
2023/08/22 10:27:30;;;;;;;8.47;7.77;;;;;;;32.91;35.94;95102.34;5073600;28;20480;-78
2023/08/22 10:30:20;;;;;;;9.27;8.37;;;;;;;33.15;36.31;95100.84;5073840;28;20456;-76
2023/08/22 10:33:05;;;;;;;10.27;9.23;;;;;;;33.35;34.87;95100.13;5075118;28;20900;-75
2023/08/22 10:35:32;;;;;;;8.87;8.00;;;;;;;33.18;35.52;95094.03;5080846;28;20830;-74
2023/08/22 10:37:59;;;;;;;9.23;7.87;;;;;;;33.36;35.49;95087.34;5065292;28;20855;-78
2023/08/22 10:40:35;;;;;;;13.80;8.80;;;;;;;33.44;36.11;95086.81;5093904;28;20767;-76
2023/08/22 10:43:13;;;;;;;10.80;8.20;;;;;;;33.17;35.38;95086.97;5064242;28;21016;-76
2023/08/22 10:45:52;;;;;;;11.53;8.70;;;;;;;33.34;35.37;95086.81;5084964;28;20550;-77
2023/08/22 10:48:21;;;;;;;8.57;7.40;;;;;;;33.26;35.88;95088.13;5093118;28;20439;-77
2023/08/22 10:50:51;;;;;;;9.60;8.80;;;;;;;32.98;35.01;95083.94;5092352;28;20440;-77
2023/08/22 10:53:26;;;;;;;7.80;7.20;;;;;;;33.35;36.09;95072.13;5074033;28;20775;-77
2023/08/22 10:55:55;;;;;;;9.10;7.63;;;;;;;33.54;35.49;95075.94;5073587;28;20931;-77
2023/08/22 10:58:39;;;;;;;11.63;8.43;;;;;;;33.76;36.10;95073.00;5082757;28;20452;-76
2023/08/22 11:01:08;;;;;;;16.60;8.17;;;;;;;33.77;35.29;95078.16;5075176;28;20439;-77
2023/08/22 11:03:35;;;;;;;11.37;7.97;;;;;;;33.59;35.26;95084.16;5094150;28;20480;-74
2023/08/22 11:06:10;;;;;;;8.80;8.10;;;;;;;33.41;35.86;95073.75;5072869;28;20445;-78
2023/08/22 11:08:37;;;;;;;7.80;7.20;;;;;;;33.53;37.38;95086.00;5048397;28;20519;-77
2023/08/22 11:11:05;;;;;;;12.03;7.80;;;;;;;33.55;36.20;95083.06;5062016;28;20437;-76
2023/08/22 11:13:38;;;;;;;10.00;9.10;;;;;;;33.60;36.78;95083.06;5092176;28;20443;-76
2023/08/22 11:16:11;;;;;;;9.70;8.80;;;;;;;33.54;37.71;95084.97;5092854;28;20463;-77
2023/08/22 11:18:38;;;;;;;16.03;9.50;;;;;;;33.53;36.38;95085.19;5081423;28;20448;-77
2023/08/22 11:21:05;;;;;;;12.80;8.20;;;;;;;33.37;36.31;95100.69;5093177;28;20965;-79
2023/08/22 11:23:33;;;;;;;12.97;7.80;;;;;;;33.04;36.70;95088.28;5081388;28;20484;-77